ACA42 KJFK-CYYZ
Flight info
| Callsign | ACA42 |
|---|---|
| Flight time | 1h 3m |
| Altitude | 18000 |
| Route | GAYEL Q818 WOZEE LINNG3 |
| Aircraft | B77W/H-SDE1E2E3FGHIJ2J3J4J5M1RWXY/LB1D1 |
Departure
| Time | 2026-05-03 22:13 |
|---|---|
| Airport | John F. Kennedy International Airport (KJFK) |
Arrival
| Time | 2026-05-03 23:17 |
|---|---|
| Airport | Toronto Pearson International Airport (CYYZ) |
| Time | Latitude | Longitude | Altitude | Speed | Heading |
|---|---|---|---|---|---|
| 2026-05-03 21:52 | 40.63855 | -73.78194 | 21 ft | 0 kts | 83° |
| 2026-05-03 22:02 | 40.63855 | -73.78199 | 20 ft | 2 kts | 84° |
| 2026-05-03 22:02 | 40.63853 | -73.78223 | 19 ft | 3 kts | 92° |
| 2026-05-03 22:02 | 40.63855 | -73.78248 | 18 ft | 3 kts | 104° |
| 2026-05-03 22:03 | 40.63861 | -73.78272 | 26 ft | 3 kts | 120° |
| 2026-05-03 22:03 | 40.63872 | -73.78292 | 27 ft | 3 kts | 136° |
| 2026-05-03 22:03 | 40.63886 | -73.78308 | 23 ft | 3 kts | 150° |
| 2026-05-03 22:03 | 40.63904 | -73.78319 | 22 ft | 3 kts | 160° |
| 2026-05-03 22:04 | 40.63923 | -73.78328 | 23 ft | 3 kts | 163° |
| 2026-05-03 22:04 | 40.63942 | -73.78336 | 24 ft | 3 kts | 157° |
| 2026-05-03 22:04 | 40.63953 | -73.78342 | 23 ft | 0 kts | 150° |
| 2026-05-03 22:07 | 40.63932 | -73.78326 | 22 ft | 8 kts | 151° |
| 2026-05-03 22:07 | 40.63879 | -73.78297 | 25 ft | 9 kts | 165° |
| 2026-05-03 22:08 | 40.63797 | -73.78281 | 23 ft | 16 kts | 173° |
| 2026-05-03 22:08 | 40.63683 | -73.78265 | 23 ft | 16 kts | 172° |
| 2026-05-03 22:08 | 40.63620 | -73.78258 | 21 ft | 1 kts | 179° |
| 2026-05-03 22:08 | 40.63573 | -73.78267 | 22 ft | 12 kts | 196° |
| 2026-05-03 22:09 | 40.63496 | -73.78310 | 26 ft | 12 kts | 201° |
| 2026-05-03 22:09 | 40.63425 | -73.78266 | 25 ft | 12 kts | 131° |
| 2026-05-03 22:09 | 40.63378 | -73.78174 | 26 ft | 12 kts | 121° |
| 2026-05-03 22:10 | 40.63335 | -73.77946 | 23 ft | 14 kts | 80° |
| 2026-05-03 22:10 | 40.63315 | -73.77826 | 27 ft | 14 kts | 118° |
| 2026-05-03 22:10 | 40.63267 | -73.77715 | 31 ft | 16 kts | 120° |
| 2026-05-03 22:10 | 40.63207 | -73.77585 | 26 ft | 17 kts | 121° |
| 2026-05-03 22:11 | 40.63147 | -73.77451 | 22 ft | 17 kts | 122° |
| 2026-05-03 22:11 | 40.63084 | -73.77318 | 22 ft | 17 kts | 122° |
| 2026-05-03 22:11 | 40.63024 | -73.77183 | 21 ft | 17 kts | 119° |
| 2026-05-03 22:11 | 40.62962 | -73.77096 | 23 ft | 7 kts | 175° |
| 2026-05-03 22:12 | 40.62874 | -73.77140 | 23 ft | 13 kts | 210° |
| 2026-05-03 22:12 | 40.62835 | -73.77240 | 22 ft | 14 kts | 280° |
| 2026-05-03 22:12 | 40.62886 | -73.77376 | 24 ft | 30 kts | 301° |
| 2026-05-03 22:12 | 40.63133 | -73.77914 | 28 ft | 109 kts | 301° |
| 2026-05-03 22:13 | 40.63676 | -73.79078 | 53 ft | 180 kts | 302° |
| 2026-05-03 22:13 | 40.64328 | -73.80596 | 598 ft | 198 kts | 301° |
| 2026-05-03 22:13 | 40.65064 | -73.82165 | 1753 ft | 202 kts | 301° |
| 2026-05-03 22:13 | 40.65401 | -73.83944 | 2730 ft | 201 kts | 264° |
| 2026-05-03 22:14 | 40.64822 | -73.85669 | 3115 ft | 217 kts | 232° |
| 2026-05-03 22:14 | 40.63647 | -73.86980 | 3438 ft | 235 kts | 212° |
| 2026-05-03 22:14 | 40.62021 | -73.87542 | 3710 ft | 256 kts | 182° |
| 2026-05-03 22:14 | 40.60248 | -73.86985 | 3874 ft | 272 kts | 153° |
| 2026-05-03 22:15 | 40.58802 | -73.85337 | 4130 ft | 282 kts | 123° |
| 2026-05-03 22:15 | 40.58052 | -73.82957 | 4505 ft | 284 kts | 94° |
| 2026-05-03 22:15 | 40.58197 | -73.80406 | 5122 ft | 278 kts | 67° |
| 2026-05-03 22:15 | 40.58977 | -73.78088 | 5776 ft | 276 kts | 58° |
| 2026-05-03 22:16 | 40.59862 | -73.75826 | 6328 ft | 279 kts | 58° |
| 2026-05-03 22:16 | 40.60770 | -73.73547 | 6740 ft | 283 kts | 58° |
| 2026-05-03 22:16 | 40.61695 | -73.71249 | 7049 ft | 286 kts | 57° |
| 2026-05-03 22:16 | 40.62628 | -73.68948 | 7306 ft | 289 kts | 57° |
| 2026-05-03 22:17 | 40.63577 | -73.66619 | 8001 ft | 289 kts | 57° |
| 2026-05-03 22:17 | 40.64533 | -73.64282 | 8681 ft | 291 kts | 57° |
| 2026-05-03 22:17 | 40.65503 | -73.61923 | 9283 ft | 295 kts | 57° |
| 2026-05-03 22:17 | 40.66493 | -73.59525 | 9880 ft | 299 kts | 57° |
| 2026-05-03 22:18 | 40.67496 | -73.57109 | 10403 ft | 302 kts | 57° |
| 2026-05-03 22:18 | 40.68516 | -73.54665 | 10923 ft | 306 kts | 57° |
| 2026-05-03 22:18 | 40.69548 | -73.52193 | 11448 ft | 312 kts | 57° |
| 2026-05-03 22:18 | 40.70676 | -73.49681 | 11572 ft | 324 kts | 47° |
| 2026-05-03 22:19 | 40.72390 | -73.47720 | 11723 ft | 331 kts | 22° |
| 2026-05-03 22:19 | 40.74584 | -73.46766 | 11885 ft | 339 kts | 4° |
| 2026-05-03 22:19 | 40.76974 | -73.46447 | 12173 ft | 351 kts | 359° |
| 2026-05-03 22:19 | 40.79445 | -73.46295 | 12704 ft | 359 kts | 358° |
| 2026-05-03 22:20 | 40.81931 | -73.46181 | 13301 ft | 365 kts | 357° |
| 2026-05-03 22:20 | 40.84487 | -73.46068 | 13980 ft | 369 kts | 357° |
| 2026-05-03 22:20 | 40.87059 | -73.45951 | 14658 ft | 371 kts | 357° |
| 2026-05-03 22:20 | 40.89648 | -73.45828 | 15297 ft | 374 kts | 357° |
| 2026-05-03 22:21 | 40.92231 | -73.45932 | 15780 ft | 370 kts | 343° |
| 2026-05-03 22:21 | 40.94612 | -73.47114 | 16287 ft | 365 kts | 325° |
| 2026-05-03 22:21 | 40.96612 | -73.49120 | 16957 ft | 359 kts | 310° |
| 2026-05-03 22:21 | 40.98132 | -73.51715 | 17572 ft | 358 kts | 302° |
| 2026-05-03 22:22 | 40.99539 | -73.54464 | 18118 ft | 362 kts | 301° |
| 2026-05-03 22:22 | 41.00941 | -73.57264 | 18689 ft | 365 kts | 301° |
| 2026-05-03 22:22 | 41.02344 | -73.60071 | 19244 ft | 367 kts | 301° |
| 2026-05-03 22:22 | 41.03284 | -73.61944 | 19615 ft | 369 kts | 301° |
| 2026-05-03 22:23 | 41.04719 | -73.64785 | 20131 ft | 372 kts | 301° |
| 2026-05-03 22:23 | 41.06170 | -73.67641 | 20631 ft | 376 kts | 301° |
| 2026-05-03 22:23 | 41.07640 | -73.70524 | 21161 ft | 379 kts | 301° |
| 2026-05-03 22:23 | 41.09127 | -73.73433 | 21681 ft | 382 kts | 301° |
| 2026-05-03 22:24 | 41.10622 | -73.76358 | 22177 ft | 385 kts | 301° |
| 2026-05-03 22:24 | 41.12137 | -73.79321 | 22667 ft | 389 kts | 300° |
| 2026-05-03 22:24 | 41.13662 | -73.82305 | 23111 ft | 394 kts | 300° |
| 2026-05-03 22:24 | 41.15222 | -73.85366 | 23186 ft | 407 kts | 300° |
| 2026-05-03 22:25 | 41.16823 | -73.88509 | 23373 ft | 416 kts | 300° |
| 2026-05-03 22:25 | 41.18459 | -73.91721 | 23636 ft | 422 kts | 300° |
| 2026-05-03 22:25 | 41.20118 | -73.94979 | 24003 ft | 425 kts | 300° |
| 2026-05-03 22:25 | 41.21776 | -73.98235 | 24437 ft | 426 kts | 300° |
| 2026-05-03 22:26 | 41.23438 | -74.01503 | 24834 ft | 428 kts | 300° |
| 2026-05-03 22:26 | 41.25089 | -74.04759 | 25178 ft | 431 kts | 299° |
| 2026-05-03 22:26 | 41.26764 | -74.08062 | 25567 ft | 432 kts | 299° |
| 2026-05-03 22:26 | 41.28468 | -74.11426 | 25959 ft | 434 kts | 299° |
| 2026-05-03 22:27 | 41.30136 | -74.14725 | 26318 ft | 436 kts | 299° |
| 2026-05-03 22:27 | 41.31834 | -74.18087 | 26665 ft | 438 kts | 298° |
| 2026-05-03 22:27 | 41.33536 | -74.21460 | 26991 ft | 440 kts | 298° |
| 2026-05-03 22:27 | 41.35243 | -74.24848 | 27315 ft | 442 kts | 298° |
| 2026-05-03 22:28 | 41.36957 | -74.28252 | 27596 ft | 444 kts | 298° |
| 2026-05-03 22:28 | 41.38680 | -74.31676 | 27878 ft | 446 kts | 298° |
| 2026-05-03 22:28 | 41.40403 | -74.35112 | 28157 ft | 447 kts | 297° |
| 2026-05-03 22:28 | 41.42023 | -74.38651 | 28413 ft | 446 kts | 295° |
| 2026-05-03 22:29 | 41.43572 | -74.42254 | 28649 ft | 448 kts | 294° |
| 2026-05-03 22:29 | 41.45086 | -74.45810 | 28976 ft | 447 kts | 294° |
| 2026-05-03 22:29 | 41.46628 | -74.49419 | 29391 ft | 445 kts | 294° |
| 2026-05-03 22:29 | 41.48163 | -74.52990 | 29809 ft | 444 kts | 294° |
| 2026-05-03 22:30 | 41.49703 | -74.56568 | 30116 ft | 443 kts | 294° |
| 2026-05-03 22:30 | 41.51235 | -74.60133 | 30348 ft | 443 kts | 294° |
| 2026-05-03 22:30 | 41.52768 | -74.63708 | 30604 ft | 443 kts | 294° |
| 2026-05-03 22:30 | 41.54296 | -74.67275 | 30867 ft | 442 kts | 293° |
| 2026-05-03 22:31 | 41.55820 | -74.70840 | 31138 ft | 441 kts | 293° |
| 2026-05-03 22:31 | 41.57342 | -74.74400 | 31403 ft | 441 kts | 293° |
| 2026-05-03 22:31 | 41.58862 | -74.77963 | 31642 ft | 441 kts | 293° |
| 2026-05-03 22:31 | 41.60360 | -74.81475 | 31868 ft | 440 kts | 293° |
| 2026-05-03 22:32 | 41.61880 | -74.85029 | 32123 ft | 440 kts | 292° |
| 2026-05-03 22:32 | 41.63400 | -74.88579 | 32360 ft | 439 kts | 292° |
| 2026-05-03 22:32 | 41.64914 | -74.92120 | 32577 ft | 439 kts | 292° |
| 2026-05-03 22:32 | 41.66431 | -74.95673 | 32879 ft | 436 kts | 292° |
| 2026-05-03 22:33 | 41.67927 | -74.99174 | 33327 ft | 431 kts | 292° |
| 2026-05-03 22:33 | 41.69406 | -75.02644 | 33647 ft | 429 kts | 291° |
| 2026-05-03 22:33 | 41.70883 | -75.06121 | 33819 ft | 430 kts | 291° |
| 2026-05-03 22:33 | 41.72362 | -75.09610 | 33982 ft | 431 kts | 291° |
| 2026-05-03 22:34 | 41.73822 | -75.13057 | 34102 ft | 431 kts | 291° |
| 2026-05-03 22:34 | 41.75301 | -75.16552 | 34227 ft | 432 kts | 291° |
| 2026-05-03 22:34 | 41.76787 | -75.20067 | 34295 ft | 434 kts | 291° |
| 2026-05-03 22:35 | 41.79771 | -75.27135 | 34457 ft | 437 kts | 291° |
| 2026-05-03 22:35 | 41.82768 | -75.34248 | 34600 ft | 440 kts | 291° |
| 2026-05-03 22:36 | 41.85780 | -75.41412 | 34749 ft | 442 kts | 291° |
| 2026-05-03 22:36 | 41.88799 | -75.48613 | 34887 ft | 444 kts | 292° |
| 2026-05-03 22:37 | 41.91835 | -75.55871 | 34998 ft | 447 kts | 292° |
| 2026-05-03 22:37 | 41.94886 | -75.63181 | 35116 ft | 449 kts | 292° |
| 2026-05-03 22:38 | 41.97935 | -75.70516 | 35224 ft | 451 kts | 292° |
| 2026-05-03 22:38 | 42.00999 | -75.77900 | 35286 ft | 453 kts | 292° |
| 2026-05-03 22:39 | 42.04071 | -75.85323 | 35381 ft | 454 kts | 292° |
| 2026-05-03 22:39 | 42.07148 | -75.92780 | 35434 ft | 457 kts | 292° |
| 2026-05-03 22:40 | 42.10211 | -76.00220 | 35506 ft | 458 kts | 292° |
| 2026-05-03 22:40 | 42.13309 | -76.07760 | 35566 ft | 460 kts | 292° |
| 2026-05-03 22:41 | 42.16316 | -76.15362 | 35636 ft | 457 kts | 288° |
| 2026-05-03 22:41 | 42.17578 | -76.19266 | 35828 ft | 453 kts | 287° |
| 2026-05-03 22:41 | 42.18820 | -76.23176 | 35855 ft | 454 kts | 287° |
| 2026-05-03 22:42 | 42.21286 | -76.30961 | 35914 ft | 454 kts | 287° |
| 2026-05-03 22:42 | 42.23781 | -76.38800 | 35918 ft | 455 kts | 287° |
| 2026-05-03 22:43 | 42.26281 | -76.46646 | 35920 ft | 456 kts | 287° |
| 2026-05-03 22:43 | 42.28782 | -76.54517 | 35916 ft | 456 kts | 287° |
| 2026-05-03 22:44 | 42.31282 | -76.62406 | 35912 ft | 457 kts | 287° |
| 2026-05-03 22:44 | 42.33781 | -76.70317 | 35921 ft | 458 kts | 287° |
| 2026-05-03 22:45 | 42.36279 | -76.78250 | 35914 ft | 459 kts | 287° |
| 2026-05-03 22:45 | 42.38778 | -76.86208 | 35920 ft | 460 kts | 287° |
| 2026-05-03 22:46 | 42.41259 | -76.94133 | 35912 ft | 460 kts | 287° |
| 2026-05-03 22:46 | 42.43750 | -77.02113 | 35912 ft | 460 kts | 287° |
| 2026-05-03 22:47 | 42.46240 | -77.10114 | 35907 ft | 461 kts | 287° |
| 2026-05-03 22:47 | 42.48728 | -77.18137 | 35906 ft | 462 kts | 287° |
| 2026-05-03 22:48 | 42.51199 | -77.26124 | 35912 ft | 462 kts | 287° |
| 2026-05-03 22:48 | 42.53683 | -77.34178 | 35908 ft | 463 kts | 287° |
| 2026-05-03 22:49 | 42.56160 | -77.42238 | 35907 ft | 463 kts | 287° |
| 2026-05-03 22:49 | 42.58631 | -77.50300 | 35911 ft | 463 kts | 287° |
| 2026-05-03 22:50 | 42.61106 | -77.58402 | 35907 ft | 464 kts | 287° |
| 2026-05-03 22:50 | 42.63575 | -77.66511 | 35899 ft | 465 kts | 287° |
| 2026-05-03 22:51 | 42.66043 | -77.74635 | 35901 ft | 466 kts | 287° |
| 2026-05-03 22:51 | 42.68396 | -77.82837 | 35901 ft | 465 kts | 286° |
| 2026-05-03 22:51 | 42.69542 | -77.86987 | 35338 ft | 477 kts | 286° |
| 2026-05-03 22:52 | 42.70693 | -77.91173 | 34861 ft | 478 kts | 286° |
| 2026-05-03 22:52 | 42.71856 | -77.95379 | 34453 ft | 471 kts | 286° |
| 2026-05-03 22:52 | 42.73002 | -77.99505 | 34098 ft | 462 kts | 286° |
| 2026-05-03 22:52 | 42.74133 | -78.03564 | 33737 ft | 454 kts | 286° |
| 2026-05-03 22:53 | 42.75242 | -78.07553 | 33201 ft | 449 kts | 285° |
| 2026-05-03 22:53 | 42.76343 | -78.11526 | 32552 ft | 448 kts | 286° |
| 2026-05-03 22:53 | 42.77440 | -78.15495 | 31782 ft | 449 kts | 286° |
| 2026-05-03 22:53 | 42.78538 | -78.19479 | 30985 ft | 451 kts | 286° |
| 2026-05-03 22:54 | 42.79641 | -78.23482 | 30261 ft | 452 kts | 286° |
| 2026-05-03 22:54 | 42.80743 | -78.27485 | 29546 ft | 451 kts | 286° |
| 2026-05-03 22:54 | 42.81841 | -78.31471 | 29019 ft | 445 kts | 287° |
| 2026-05-03 22:54 | 42.82922 | -78.35401 | 28487 ft | 440 kts | 287° |
| 2026-05-03 22:55 | 42.83989 | -78.39290 | 27952 ft | 436 kts | 287° |
| 2026-05-03 22:55 | 42.85031 | -78.43096 | 27392 ft | 433 kts | 287° |
| 2026-05-03 22:55 | 42.86078 | -78.46930 | 26845 ft | 430 kts | 287° |
| 2026-05-03 22:55 | 42.87118 | -78.50743 | 26318 ft | 427 kts | 287° |
| 2026-05-03 22:56 | 42.88147 | -78.54522 | 25808 ft | 424 kts | 287° |
| 2026-05-03 22:56 | 42.89168 | -78.58275 | 25308 ft | 420 kts | 288° |
| 2026-05-03 22:56 | 42.90180 | -78.62001 | 24822 ft | 417 kts | 288° |
| 2026-05-03 22:56 | 42.91183 | -78.65697 | 24373 ft | 414 kts | 288° |
| 2026-05-03 22:57 | 42.92176 | -78.69363 | 23910 ft | 411 kts | 288° |
| 2026-05-03 22:57 | 42.93186 | -78.73006 | 23431 ft | 409 kts | 291° |
| 2026-05-03 22:57 | 42.94651 | -78.76324 | 22825 ft | 408 kts | 307° |
| 2026-05-03 22:57 | 42.96508 | -78.79255 | 22201 ft | 408 kts | 308° |
| 2026-05-03 22:58 | 42.98352 | -78.82192 | 21644 ft | 406 kts | 307° |
| 2026-05-03 22:58 | 43.00164 | -78.85131 | 21172 ft | 403 kts | 307° |
| 2026-05-03 22:58 | 43.01946 | -78.88063 | 20708 ft | 399 kts | 307° |
| 2026-05-03 22:58 | 43.03709 | -78.90985 | 20261 ft | 396 kts | 307° |
| 2026-05-03 22:59 | 43.05433 | -78.93856 | 19759 ft | 394 kts | 307° |
| 2026-05-03 22:59 | 43.07165 | -78.96744 | 19308 ft | 392 kts | 307° |
| 2026-05-03 22:59 | 43.08888 | -78.99619 | 18867 ft | 389 kts | 307° |
| 2026-05-03 22:59 | 43.10599 | -79.02474 | 18438 ft | 387 kts | 307° |
| 2026-05-03 23:00 | 43.12300 | -79.05316 | 17998 ft | 384 kts | 307° |
| 2026-05-03 23:00 | 43.13993 | -79.08145 | 17501 ft | 382 kts | 307° |
| 2026-05-03 23:00 | 43.15672 | -79.10950 | 17034 ft | 380 kts | 307° |
| 2026-05-03 23:00 | 43.17339 | -79.13740 | 16545 ft | 378 kts | 307° |
| 2026-05-03 23:01 | 43.18999 | -79.16520 | 16088 ft | 376 kts | 307° |
| 2026-05-03 23:01 | 43.20628 | -79.19251 | 15635 ft | 373 kts | 307° |
| 2026-05-03 23:01 | 43.22268 | -79.22002 | 15163 ft | 372 kts | 307° |
| 2026-05-03 23:01 | 43.23921 | -79.24780 | 14723 ft | 370 kts | 307° |
| 2026-05-03 23:02 | 43.25518 | -79.27464 | 14480 ft | 363 kts | 307° |
| 2026-05-03 23:02 | 43.27087 | -79.30100 | 14396 ft | 350 kts | 307° |
| 2026-05-03 23:02 | 43.28632 | -79.32693 | 14360 ft | 360 kts | 307° |
| 2026-05-03 23:02 | 43.30317 | -79.35290 | 14321 ft | 358 kts | 317° |
| 2026-05-03 23:03 | 43.32409 | -79.37011 | 13829 ft | 346 kts | 335° |
| 2026-05-03 23:03 | 43.34579 | -79.38256 | 13372 ft | 332 kts | 333° |
| 2026-05-03 23:03 | 43.36638 | -79.39540 | 12833 ft | 317 kts | 332° |
| 2026-05-03 23:03 | 43.38596 | -79.40795 | 12317 ft | 303 kts | 332° |
| 2026-05-03 23:04 | 43.40470 | -79.42003 | 11827 ft | 290 kts | 332° |
| 2026-05-03 23:04 | 43.42275 | -79.43168 | 11358 ft | 286 kts | 332° |
| 2026-05-03 23:04 | 43.44087 | -79.44339 | 10909 ft | 288 kts | 333° |
| 2026-05-03 23:04 | 43.45903 | -79.45512 | 10476 ft | 289 kts | 333° |
| 2026-05-03 23:05 | 43.47732 | -79.46693 | 10040 ft | 291 kts | 333° |
| 2026-05-03 23:05 | 43.49551 | -79.47866 | 9582 ft | 293 kts | 333° |
| 2026-05-03 23:05 | 43.51398 | -79.49058 | 9114 ft | 294 kts | 333° |
| 2026-05-03 23:05 | 43.53256 | -79.50258 | 8632 ft | 296 kts | 333° |
| 2026-05-03 23:06 | 43.55113 | -79.51455 | 8106 ft | 291 kts | 333° |
| 2026-05-03 23:06 | 43.56933 | -79.52606 | 7556 ft | 285 kts | 336° |
| 2026-05-03 23:06 | 43.58864 | -79.53074 | 6994 ft | 284 kts | 4° |
| 2026-05-03 23:06 | 43.60750 | -79.52288 | 6500 ft | 283 kts | 26° |
| 2026-05-03 23:07 | 43.62310 | -79.50662 | 5968 ft | 282 kts | 43° |
| 2026-05-03 23:07 | 43.63642 | -79.48704 | 5438 ft | 280 kts | 44° |
| 2026-05-03 23:07 | 43.64982 | -79.46712 | 4952 ft | 285 kts | 44° |
| 2026-05-03 23:07 | 43.66345 | -79.44690 | 4425 ft | 290 kts | 44° |
| 2026-05-03 23:08 | 43.67732 | -79.42641 | 3926 ft | 295 kts | 44° |
| 2026-05-03 23:08 | 43.69152 | -79.40557 | 3423 ft | 299 kts | 44° |
| 2026-05-03 23:08 | 43.70086 | -79.39187 | 3118 ft | 291 kts | 44° |
| 2026-05-03 23:08 | 43.71821 | -79.36639 | 2951 ft | 256 kts | 44° |
| 2026-05-03 23:09 | 43.72620 | -79.35466 | 2931 ft | 241 kts | 43° |
| 2026-05-03 23:09 | 43.73730 | -79.33841 | 3004 ft | 230 kts | 43° |
| 2026-05-03 23:09 | 43.74898 | -79.32516 | 2970 ft | 203 kts | 18° |
| 2026-05-03 23:09 | 43.76183 | -79.32252 | 2983 ft | 179 kts | 359° |
| 2026-05-03 23:10 | 43.77362 | -79.31722 | 2979 ft | 180 kts | 22° |
| 2026-05-03 23:10 | 43.78493 | -79.31000 | 3075 ft | 178 kts | 15° |
| 2026-05-03 23:10 | 43.79674 | -79.30956 | 2990 ft | 170 kts | 334° |
| 2026-05-03 23:10 | 43.80565 | -79.31926 | 2873 ft | 161 kts | 306° |
| 2026-05-03 23:11 | 43.81021 | -79.33331 | 2678 ft | 162 kts | 282° |
| 2026-05-03 23:11 | 43.81038 | -79.34898 | 2353 ft | 164 kts | 264° |
| 2026-05-03 23:11 | 43.80737 | -79.36431 | 1988 ft | 166 kts | 251° |
| 2026-05-03 23:11 | 43.80238 | -79.37840 | 1647 ft | 161 kts | 247° |
| 2026-05-03 23:12 | 43.79804 | -79.39243 | 1817 ft | 160 kts | 251° |
| 2026-05-03 23:12 | 43.79378 | -79.40707 | 1796 ft | 166 kts | 251° |
| 2026-05-03 23:12 | 43.78921 | -79.42153 | 1775 ft | 161 kts | 248° |
| 2026-05-03 23:12 | 43.78375 | -79.43527 | 1821 ft | 164 kts | 239° |
| 2026-05-03 23:13 | 43.77739 | -79.44855 | 1809 ft | 165 kts | 237° |
| 2026-05-03 23:13 | 43.77065 | -79.46145 | 1855 ft | 165 kts | 236° |
| 2026-05-03 23:13 | 43.76319 | -79.47343 | 1951 ft | 164 kts | 232° |
| 2026-05-03 23:13 | 43.75510 | -79.48492 | 2042 ft | 168 kts | 229° |
| 2026-05-03 23:14 | 43.74669 | -79.49602 | 2107 ft | 168 kts | 227° |
| 2026-05-03 23:14 | 43.73814 | -79.50703 | 2170 ft | 167 kts | 227° |
| 2026-05-03 23:14 | 43.72985 | -79.51781 | 2068 ft | 166 kts | 228° |
| 2026-05-03 23:14 | 43.72167 | -79.52890 | 1822 ft | 167 kts | 230° |
| 2026-05-03 23:15 | 43.71361 | -79.54032 | 1567 ft | 164 kts | 230° |
| 2026-05-03 23:15 | 43.70617 | -79.55180 | 1326 ft | 156 kts | 232° |
| 2026-05-03 23:15 | 43.69895 | -79.56278 | 1165 ft | 153 kts | 225° |
| 2026-05-03 23:15 | 43.69161 | -79.57323 | 1065 ft | 149 kts | 226° |
| 2026-05-03 23:16 | 43.68463 | -79.58339 | 871 ft | 143 kts | 227° |
| 2026-05-03 23:16 | 43.67797 | -79.59319 | 671 ft | 136 kts | 227° |
| 2026-05-03 23:16 | 43.67154 | -79.60258 | 573 ft | 128 kts | 224° |
| 2026-05-03 23:16 | 43.66635 | -79.61018 | 573 ft | 85 kts | 226° |
| 2026-05-03 23:17 | 43.66410 | -79.61461 | 568 ft | 20 kts | 251° |
| 2026-05-03 23:17 | 43.66377 | -79.61644 | 569 ft | 0 kts | 273° |
| 2026-05-03 23:18 | 43.66389 | -79.61695 | 572 ft | 15 kts | 297° |
| 2026-05-03 23:18 | 43.66478 | -79.61831 | 569 ft | 20 kts | 314° |
| 2026-05-03 23:18 | 43.66580 | -79.61962 | 569 ft | 20 kts | 315° |
| 2026-05-03 23:18 | 43.66682 | -79.61984 | 571 ft | 16 kts | 30° |
| 2026-05-03 23:19 | 43.66766 | -79.61887 | 577 ft | 16 kts | 41° |
| 2026-05-03 23:19 | 43.66849 | -79.61783 | 578 ft | 19 kts | 41° |
| 2026-05-03 23:19 | 43.66962 | -79.61636 | 577 ft | 23 kts | 43° |
| 2026-05-03 23:19 | 43.67079 | -79.61490 | 578 ft | 23 kts | 45° |
| 2026-05-03 23:20 | 43.67193 | -79.61337 | 579 ft | 23 kts | 48° |
| 2026-05-03 23:20 | 43.67271 | -79.61271 | 573 ft | 14 kts | 347° |
| 2026-05-03 23:20 | 43.67395 | -79.61307 | 575 ft | 20 kts | 14° |
| 2026-05-03 23:20 | 43.67507 | -79.61194 | 575 ft | 20 kts | 29° |
| 2026-05-03 23:21 | 43.67575 | -79.61172 | 571 ft | 0 kts | 8° |